Time;durP1;ratioP1;P1;durP2;ratioP2;P2;SDS_P1;SDS_P2;PMS_P1;PMS_P2;Temp;Humidity;BMP_temperature;BMP_pressure;BME280_temperature;BME280_humidity;BME280_pressure;Samples;Min_cycle;Max_cycle;Signal;HPM_P1;HPM_P2
2023/02/04 00:00:04;;;;;;;;;;;;;;;;;;1043699;28;19999;-76
2023/02/04 00:00:37;;;;;;;;;;;;;;;;;;1039192;28;19924;-76
2023/02/04 00:01:08;;;;;;;;;;;;;;;;;;1040050;28;19928;-76
2023/02/04 00:01:39;;;;;;;;;;;;;;;;;;1043464;28;20343;-77
2023/02/04 00:02:10;;;;;;;;;;;;;;;;;;1043607;28;19913;-77
2023/02/04 00:02:41;;;;;;;;;;;;;;;;;;1043640;28;20015;-77
2023/02/04 00:03:11;;;;;;;;;;;;;;;;;;1047839;28;19955;-76
2023/02/04 00:03:42;;;;;;;;;;;;;;;;;;1047513;28;20003;-77
2023/02/04 00:04:16;;;;;;;;;;;;;;;;;;1043523;28;19995;-77
2023/02/04 00:04:47;;;;;;;;;;;;;;;;;;1043566;28;19913;-76
2023/02/04 00:05:19;;;;;;;;;;;;;;;;;;1039078;28;20008;-77
2023/02/04 00:05:50;;;;;;;;;;;;;;;;;;1040247;28;19913;-77
2023/02/04 00:06:20;;;;;;;;;;;;;;;;;;1039335;28;19909;-77
2023/02/04 00:06:51;;;;;;;;;;;;;;;;;;1039636;28;19924;-78
2023/02/04 00:07:22;;;;;;;;;;;;;;;;;;1039187;28;20432;-76
2023/02/04 00:07:53;;;;;;;;;;;;;;;;;;1039299;28;19913;-77
2023/02/04 00:08:24;;;;;;;;;;;;;;;;;;1039430;28;19929;-76
2023/02/04 00:08:55;;;;;;;;;;;;;;;;;;1043800;28;19913;-76
2023/02/04 00:09:26;;;;;;;;;;;;;;;;;;1047707;28;19962;-76
2023/02/04 00:09:57;;;;;;;;;;;;;;;;;;1047755;28;19913;-77
2023/02/04 00:10:27;;;;;;;;;;;;;;;;;;1043177;28;19913;-77
2023/02/04 00:10:58;;;;;;;;;;;;;;;;;;1043494;28;19920;-77
2023/02/04 00:11:29;;;;;;;;;;;;;;;;;;1043519;28;20355;-77
2023/02/04 00:12:00;;;;;;;;;;;;;;;;;;1043653;28;20087;-77
2023/02/04 00:12:31;;;;;;;;;;;;;;;;;;1043285;28;19912;-77
2023/02/04 00:13:02;;;;;;;;;;;;;;;;;;1043961;28;19936;-77
2023/02/04 00:13:33;;;;;;;;;;;;;;;;;;1039537;28;19920;-77
2023/02/04 00:14:04;;;;;;;;;;;;;;;;;;1039306;28;19921;-77
2023/02/04 00:14:34;;;;;;;;;;;;;;;;;;1039174;28;19913;-78
2023/02/04 00:15:05;;;;;;;;;;;;;;;;;;1039475;28;20008;-77
2023/02/04 00:15:36;;;;;;;;;;;;;;;;;;1043065;28;19913;-77
2023/02/04 00:16:07;;;;;;;;;;;;;;;;;;1039341;28;19924;-77
2023/02/04 00:16:38;;;;;;;;;;;;;;;;;;1039362;28;20277;-77
2023/02/04 00:17:11;;;;;;;;;;;;;;;;;;1043265;28;19966;-77
2023/02/04 00:17:42;;;;;;;;;;;;;;;;;;1043373;28;19915;-77
2023/02/04 00:18:13;;;;;;;;;;;;;;;;;;1043027;28;19913;-78
2023/02/04 00:18:44;;;;;;;;;;;;;;;;;;1041354;28;19995;-78
2023/02/04 00:19:15;;;;;;;;;;;;;;;;;;1040130;28;20315;-76
2023/02/04 00:19:46;;;;;;;;;;;;;;;;;;1039318;28;19967;-77
2023/02/04 00:20:18;;;;;;;;;;;;;;;;;;1039240;28;19913;-77
2023/02/04 00:20:49;;;;;;;;;;;;;;;;;;1041733;28;20004;-78
2023/02/04 00:21:20;;;;;;;;;;;;;;;;;;1043631;28;19909;-77
2023/02/04 00:21:51;;;;;;;;;;;;;;;;;;1043344;28;19975;-77
2023/02/04 00:22:22;;;;;;;;;;;;;;;;;;1039181;28;19913;-78
2023/02/04 00:22:52;;;;;;;;;;;;;;;;;;1039418;28;19913;-76
2023/02/04 00:23:23;;;;;;;;;;;;;;;;;;1035528;28;19937;-76
2023/02/04 00:23:54;;;;;;;;;;;;;;;;;;1039571;28;19919;-77
2023/02/04 00:24:25;;;;;;;;;;;;;;;;;;1047392;28;20034;-77
2023/02/04 00:24:56;;;;;;;;;;;;;;;;;;1047644;28;19936;-76
2023/02/04 00:25:27;;;;;;;;;;;;;;;;;;1043378;28;19943;-79
2023/02/04 00:25:58;;;;;;;;;;;;;;;;;;1043202;28;19912;-76
2023/02/04 00:26:29;;;;;;;;;;;;;;;;;;1043216;28;19920;-77
2023/02/04 00:26:59;;;;;;;;;;;;;;;;;;1043555;28;19919;-76
2023/02/04 00:27:30;;;;;;;;;;;;;;;;;;1043227;28;19913;-78
2023/02/04 00:28:02;;;;;;;;;;;;;;;;;;1043597;28;20375;-77
2023/02/04 00:28:33;;;;;;;;;;;;;;;;;;1043183;28;19996;-77
2023/02/04 00:29:04;;;;;;;;;;;;;;;;;;1042659;28;19913;-76
2023/02/04 00:29:35;;;;;;;;;;;;;;;;;;1043233;28;20418;-75
2023/02/04 00:30:06;;;;;;;;;;;;;;;;;;1039603;28;19913;-76
2023/02/04 00:30:37;;;;;;;;;;;;;;;;;;1039579;28;20280;-77
2023/02/04 00:31:08;;;;;;;;;;;;;;;;;;1043563;28;19913;-76
2023/02/04 00:31:38;;;;;;;;;;;;;;;;;;1043200;28;19919;-77
2023/02/04 00:32:09;;;;;;;;;;;;;;;;;;1043290;28;20257;-76
2023/02/04 00:32:40;;;;;;;;;;;;;;;;;;1045221;28;19913;-76
2023/02/04 00:33:11;;;;;;;;;;;;;;;;;;1048119;28;19951;-77
2023/02/04 00:33:42;;;;;;;;;;;;;;;;;;1047356;28;19912;-76
2023/02/04 00:34:13;;;;;;;;;;;;;;;;;;1046934;28;20021;-76
2023/02/04 00:34:44;;;;;;;;;;;;;;;;;;1042391;28;20492;-77
2023/02/04 00:35:15;;;;;;;;;;;;;;;;;;1035684;28;19913;-77
2023/02/04 00:35:46;;;;;;;;;;;;;;;;;;1039503;28;20332;-77
2023/02/04 00:36:17;;;;;;;;;;;;;;;;;;1043006;28;19913;-76
2023/02/04 00:36:48;;;;;;;;;;;;;;;;;;1043644;28;20329;-76
2023/02/04 00:37:19;;;;;;;;;;;;;;;;;;1047756;28;19946;-76
2023/02/04 00:37:50;;;;;;;;;;;;;;;;;;1041065;28;19909;-77
2023/02/04 00:38:21;;;;;;;;;;;;;;;;;;1039466;28;20388;-76
2023/02/04 00:38:52;;;;;;;;;;;;;;;;;;1035346;28;20309;-76
2023/02/04 00:39:23;;;;;;;;;;;;;;;;;;1036523;28;20492;-77
2023/02/04 00:39:54;;;;;;;;;;;;;;;;;;1039252;28;19913;-76
2023/02/04 00:40:25;;;;;;;;;;;;;;;;;;1039454;28;19939;-77
2023/02/04 00:40:56;;;;;;;;;;;;;;;;;;1035207;28;19951;-77
2023/02/04 00:41:27;;;;;;;;;;;;;;;;;;1035104;28;19917;-77
2023/02/04 00:41:57;;;;;;;;;;;;;;;;;;1035172;28;19910;-77
2023/02/04 00:42:28;;;;;;;;;;;;;;;;;;1031248;28;19960;-76
2023/02/04 00:42:59;;;;;;;;;;;;;;;;;;1031558;28;20389;-77
2023/02/04 00:43:30;;;;;;;;;;;;;;;;;;1035288;28;19910;-78
2023/02/04 00:44:01;;;;;;;;;;;;;;;;;;1035145;28;19960;-77
2023/02/04 00:44:32;;;;;;;;;;;;;;;;;;1031268;28;19914;-77
2023/02/04 00:45:03;;;;;;;;;;;;;;;;;;1037366;28;20699;-77
2023/02/04 00:45:34;;;;;;;;;;;;;;;;;;1035257;28;19909;-77
2023/02/04 00:46:04;;;;;;;;;;;;;;;;;;1039747;28;19909;-77
2023/02/04 00:46:35;;;;;;;;;;;;;;;;;;1038946;28;19944;-76
2023/02/04 00:47:06;;;;;;;;;;;;;;;;;;1035719;28;19910;-77
2023/02/04 00:47:37;;;;;;;;;;;;;;;;;;1039056;28;19977;-77
2023/02/04 00:48:08;;;;;;;;;;;;;;;;;;1039608;28;19909;-76
2023/02/04 00:48:39;;;;;;;;;;;;;;;;;;1039009;28;20003;-78
2023/02/04 00:49:10;;;;;;;;;;;;;;;;;;1039724;28;20638;-76
2023/02/04 00:49:40;;;;;;;;;;;;;;;;;;1039042;28;19916;-76
2023/02/04 00:50:11;;;;;;;;;;;;;;;;;;1039346;28;19917;-77
2023/02/04 00:50:42;;;;;;;;;;;;;;;;;;1039296;28;19909;-76
2023/02/04 00:51:13;;;;;;;;;;;;;;;;;;1039650;28;19936;-77
2023/02/04 00:51:47;;;;;;;;;;;;;;;;;;1034995;28;19916;-77
2023/02/04 00:52:18;;;;;;;;;;;;;;;;;;1039366;28;19916;-76
2023/02/04 00:52:49;;;;;;;;;;;;;;;;;;1039315;28;19909;-77
2023/02/04 00:53:19;;;;;;;;;;;;;;;;;;1039301;28;19909;-77
2023/02/04 00:53:50;;;;;;;;;;;;;;;;;;1035077;28;20388;-77
2023/02/04 00:54:21;;;;;;;;;;;;;;;;;;1035434;28;20351;-77
2023/02/04 00:54:52;;;;;;;;;;;;;;;;;;1039236;28;20599;-76
2023/02/04 00:55:23;;;;;;;;;;;;;;;;;;1039448;28;19909;-77
2023/02/04 00:55:54;;;;;;;;;;;;;;;;;;1038887;28;20344;-77
2023/02/04 00:56:25;;;;;;;;;;;;;;;;;;1039476;28;19917;-76
2023/02/04 00:56:56;;;;;;;;;;;;;;;;;;1035034;28;19979;-76
2023/02/04 00:57:26;;;;;;;;;;;;;;;;;;1035411;28;20399;-76
2023/02/04 00:57:57;;;;;;;;;;;;;;;;;;1039480;28;19906;-76
2023/02/04 00:58:28;;;;;;;;;;;;;;;;;;1039022;28;19913;-77
2023/02/04 00:58:59;;;;;;;;;;;;;;;;;;1039565;28;20044;-77
2023/02/04 00:59:30;;;;;;;;;;;;;;;;;;1043900;28;19948;-78
2023/02/04 01:00:01;;;;;;;;;;;;;;;;;;1043721;28;20395;-76
2023/02/04 01:00:32;;;;;;;;;;;;;;;;;;1039007;28;19959;-76
2023/02/04 01:01:03;;;;;;;;;;;;;;;;;;1039450;28;20767;-76
2023/02/04 01:01:33;;;;;;;;;;;;;;;;;;1039061;28;19912;-76
2023/02/04 01:02:04;;;;;;;;;;;;;;;;;;1039210;28;20051;-77
2023/02/04 01:02:35;;;;;;;;;;;;;;;;;;1039078;28;20388;-77
2023/02/04 01:03:06;;;;;;;;;;;;;;;;;;1035426;28;19917;-76
2023/02/04 01:03:37;;;;;;;;;;;;;;;;;;1034981;28;19975;-75
2023/02/04 01:04:08;;;;;;;;;;;;;;;;;;1029884;28;20463;-77
2023/02/04 01:04:39;;;;;;;;;;;;;;;;;;1027394;28;20044;-76
2023/02/04 01:05:10;;;;;;;;;;;;;;;;;;1031588;28;19910;-75
2023/02/04 01:05:41;;;;;;;;;;;;;;;;;;1034599;28;20550;-76
2023/02/04 01:06:12;;;;;;;;;;;;;;;;;;1035344;28;19910;-77
2023/02/04 01:06:43;;;;;;;;;;;;;;;;;;1035127;28;19917;-77
2023/02/04 01:07:13;;;;;;;;;;;;;;;;;;1034908;28;19913;-76
2023/02/04 01:07:44;;;;;;;;;;;;;;;;;;1039332;28;19995;-76
2023/02/04 01:08:15;;;;;;;;;;;;;;;;;;1039143;28;20353;-76
2023/02/04 01:08:46;;;;;;;;;;;;;;;;;;1039241;28;19913;-76
2023/02/04 01:09:17;;;;;;;;;;;;;;;;;;1039293;28;20520;-76
2023/02/04 01:09:48;;;;;;;;;;;;;;;;;;1039220;28;19976;-77
2023/02/04 01:10:19;;;;;;;;;;;;;;;;;;1035514;28;20072;-76
2023/02/04 01:10:49;;;;;;;;;;;;;;;;;;1039284;28;20368;-76
2023/02/04 01:11:20;;;;;;;;;;;;;;;;;;1038097;28;19913;-77
2023/02/04 01:11:51;;;;;;;;;;;;;;;;;;1031111;28;19953;-78
2023/02/04 01:12:24;;;;;;;;;;;;;;;;;;1031118;28;19918;-77
2023/02/04 01:12:55;;;;;;;;;;;;;;;;;;1031219;28;20004;-76
2023/02/04 01:13:26;;;;;;;;;;;;;;;;;;1033704;28;19914;-77
2023/02/04 01:13:57;;;;;;;;;;;;;;;;;;1039740;28;19944;-76
2023/02/04 01:14:28;;;;;;;;;;;;;;;;;;1039248;28;20583;-77
2023/02/04 01:14:59;;;;;;;;;;;;;;;;;;1039224;28;20024;-78
2023/02/04 01:15:30;;;;;;;;;;;;;;;;;;1039278;28;19924;-76
2023/02/04 01:16:00;;;;;;;;;;;;;;;;;;1039380;28;19913;-76
2023/02/04 01:16:31;;;;;;;;;;;;;;;;;;1035116;28;19952;-76
2023/02/04 01:17:02;;;;;;;;;;;;;;;;;;1035270;28;19917;-75
2023/02/04 01:17:33;;;;;;;;;;;;;;;;;;1035281;28;19949;-75
2023/02/04 01:18:04;;;;;;;;;;;;;;;;;;1035528;28;20444;-76
2023/02/04 01:18:35;;;;;;;;;;;;;;;;;;1039222;28;19920;-75
2023/02/04 01:19:06;;;;;;;;;;;;;;;;;;1035214;28;20492;-77
2023/02/04 01:19:37;;;;;;;;;;;;;;;;;;1035134;28;19913;-77
2023/02/04 01:20:07;;;;;;;;;;;;;;;;;;1039326;28;19916;-76
2023/02/04 01:20:38;;;;;;;;;;;;;;;;;;1039225;28;20032;-76
2023/02/04 01:21:09;;;;;;;;;;;;;;;;;;1039699;28;19913;-76
2023/02/04 01:21:40;;;;;;;;;;;;;;;;;;1043607;28;20375;-75
2023/02/04 01:22:11;;;;;;;;;;;;;;;;;;1043738;28;20304;-77
2023/02/04 01:22:42;;;;;;;;;;;;;;;;;;1043453;28;19999;-76
2023/02/04 01:23:13;;;;;;;;;;;;;;;;;;1043804;28;20616;-75
2023/02/04 01:23:43;;;;;;;;;;;;;;;;;;1039279;28;19928;-76
2023/02/04 01:24:14;;;;;;;;;;;;;;;;;;1039195;28;19909;-76
2023/02/04 01:24:45;;;;;;;;;;;;;;;;;;1039258;28;20047;-77
2023/02/04 01:25:16;;;;;;;;;;;;;;;;;;1039485;28;20326;-76
2023/02/04 01:25:47;;;;;;;;;;;;;;;;;;1039227;28;20012;-76
2023/02/04 01:26:18;;;;;;;;;;;;;;;;;;1039269;28;19917;-76
2023/02/04 01:26:49;;;;;;;;;;;;;;;;;;1039236;28;19924;-76
2023/02/04 01:27:20;;;;;;;;;;;;;;;;;;1035345;28;19910;-76
2023/02/04 01:27:50;;;;;;;;;;;;;;;;;;1039176;28;20647;-76
2023/02/04 01:28:21;;;;;;;;;;;;;;;;;;1035992;28;19996;-76
2023/02/04 01:28:52;;;;;;;;;;;;;;;;;;1035223;28;19936;-76
2023/02/04 01:29:23;;;;;;;;;;;;;;;;;;1035257;28;19917;-76
2023/02/04 01:29:54;;;;;;;;;;;;;;;;;;1031261;28;20021;-76
2023/02/04 01:30:25;;;;;;;;;;;;;;;;;;1031030;28;20790;-76
2023/02/04 01:30:56;;;;;;;;;;;;;;;;;;1032532;28;20008;-76
2023/02/04 01:31:27;;;;;;;;;;;;;;;;;;1035394;28;20342;-77
2023/02/04 01:31:58;;;;;;;;;;;;;;;;;;1034830;28;20431;-76
2023/02/04 01:32:28;;;;;;;;;;;;;;;;;;1030919;28;19914;-76
2023/02/04 01:32:59;;;;;;;;;;;;;;;;;;1031413;28;19956;-76
2023/02/04 01:33:30;;;;;;;;;;;;;;;;;;1030950;28;20282;-77
2023/02/04 01:34:02;;;;;;;;;;;;;;;;;;1035387;28;20008;-76
2023/02/04 01:34:33;;;;;;;;;;;;;;;;;;1034779;28;19964;-76
2023/02/04 01:35:04;;;;;;;;;;;;;;;;;;1035371;28;19956;-77
2023/02/04 01:35:34;;;;;;;;;;;;;;;;;;1034875;28;20418;-77
2023/02/04 01:36:05;;;;;;;;;;;;;;;;;;1035504;28;19952;-76
2023/02/04 01:36:36;;;;;;;;;;;;;;;;;;1034837;28;20357;-75
2023/02/04 01:37:07;;;;;;;;;;;;;;;;;;1035658;28;19913;-77
2023/02/04 01:37:38;;;;;;;;;;;;;;;;;;1038951;28;20608;-77
2023/02/04 01:38:12;;;;;;;;;;;;;;;;;;1038784;28;19913;-77
2023/02/04 01:38:43;;;;;;;;;;;;;;;;;;1041188;28;19952;-76
2023/02/04 01:39:14;;;;;;;;;;;;;;;;;;1039236;28;19913;-76
2023/02/04 01:39:45;;;;;;;;;;;;;;;;;;1038860;28;19913;-76
2023/02/04 01:40:16;;;;;;;;;;;;;;;;;;1038578;28;19982;-76
2023/02/04 01:40:47;;;;;;;;;;;;;;;;;;1038575;28;19925;-77
2023/02/04 01:41:18;;;;;;;;;;;;;;;;;;1043643;28;19913;-76
2023/02/04 01:41:48;;;;;;;;;;;;;;;;;;1043219;28;20008;-77
2023/02/04 01:42:19;;;;;;;;;;;;;;;;;;1046816;28;20450;-76
2023/02/04 01:42:50;;;;;;;;;;;;;;;;;;1043444;28;19917;-77
2023/02/04 01:43:22;;;;;;;;;;;;;;;;;;1039228;28;20380;-76
2023/02/04 01:43:52;;;;;;;;;;;;;;;;;;1039116;28;20364;-77
2023/02/04 01:44:23;;;;;;;;;;;;;;;;;;1042182;28;20371;-76
2023/02/04 01:44:54;;;;;;;;;;;;;;;;;;1040380;28;20481;-77
2023/02/04 01:45:25;;;;;;;;;;;;;;;;;;1043123;28;20489;-77
2023/02/04 01:45:56;;;;;;;;;;;;;;;;;;1040361;28;19913;-76
2023/02/04 01:46:27;;;;;;;;;;;;;;;;;;1039466;28;19909;-77
2023/02/04 01:46:58;;;;;;;;;;;;;;;;;;1043347;28;19924;-76
2023/02/04 01:47:29;;;;;;;;;;;;;;;;;;1038855;28;20016;-77
2023/02/04 01:48:00;;;;;;;;;;;;;;;;;;1039102;28;19913;-77
2023/02/04 01:48:31;;;;;;;;;;;;;;;;;;1038538;28;20007;-77
2023/02/04 01:49:02;;;;;;;;;;;;;;;;;;1039210;28;20050;-77
2023/02/04 01:49:33;;;;;;;;;;;;;;;;;;1039045;28;20007;-77
2023/02/04 01:50:04;;;;;;;;;;;;;;;;;;1040347;28;19913;-77
2023/02/04 01:50:35;;;;;;;;;;;;;;;;;;1038800;28;19916;-76
2023/02/04 01:51:06;;;;;;;;;;;;;;;;;;1043298;28;19920;-76
2023/02/04 01:51:36;;;;;;;;;;;;;;;;;;1038610;28;19940;-77
2023/02/04 01:52:07;;;;;;;;;;;;;;;;;;1037026;28;19917;-77
2023/02/04 01:52:38;;;;;;;;;;;;;;;;;;1038834;28;19928;-77
2023/02/04 01:53:09;;;;;;;;;;;;;;;;;;1034971;28;19915;-76
2023/02/04 01:53:40;;;;;;;;;;;;;;;;;;1039687;28;19920;-77
2023/02/04 01:54:11;;;;;;;;;;;;;;;;;;1047162;28;20392;-76
2023/02/04 01:54:42;;;;;;;;;;;;;;;;;;1047079;28;19999;-76
2023/02/04 01:55:13;;;;;;;;;;;;;;;;;;1045728;28;20027;-77
2023/02/04 01:55:44;;;;;;;;;;;;;;;;;;1042939;28;20698;-77
2023/02/04 01:56:15;;;;;;;;;;;;;;;;;;1043335;28;20807;-77
2023/02/04 01:56:47;;;;;;;;;;;;;;;;;;1047390;28;19969;-78
2023/02/04 01:57:18;;;;;;;;;;;;;;;;;;1047587;28;19916;-77
2023/02/04 01:57:49;;;;;;;;;;;;;;;;;;1042744;28;19921;-77
2023/02/04 01:58:20;;;;;;;;;;;;;;;;;;1043057;28;20068;-78
2023/02/04 01:58:51;;;;;;;;;;;;;;;;;;1042798;28;19917;-77
2023/02/04 01:59:21;;;;;;;;;;;;;;;;;;1043157;28;20008;-77
2023/02/04 01:59:52;;;;;;;;;;;;;;;;;;1042746;28;19924;-77
2023/02/04 02:00:23;;;;;;;;;;;;;;;;;;1040490;28;19920;-77
2023/02/04 02:00:54;;;;;;;;;;;;;;;;;;1039085;28;19913;-77
2023/02/04 02:01:25;;;;;;;;;;;;;;;;;;1043246;28;19913;-76
2023/02/04 02:01:56;;;;;;;;;;;;;;;;;;1038617;28;20000;-77
2023/02/04 02:02:27;;;;;;;;;;;;;;;;;;1038946;28;19947;-76
2023/02/04 02:02:58;;;;;;;;;;;;;;;;;;1038952;28;19913;-76
2023/02/04 02:03:28;;;;;;;;;;;;;;;;;;1038965;28;20432;-76
2023/02/04 02:03:59;;;;;;;;;;;;;;;;;;1043039;28;19916;-77
2023/02/04 02:04:30;;;;;;;;;;;;;;;;;;1039013;28;19940;-76
2023/02/04 02:05:01;;;;;;;;;;;;;;;;;;1039028;28;19932;-76
2023/02/04 02:05:32;;;;;;;;;;;;;;;;;;1036557;28;20368;-77
2023/02/04 02:06:03;;;;;;;;;;;;;;;;;;1039111;28;19917;-77
2023/02/04 02:06:34;;;;;;;;;;;;;;;;;;1042927;28;19983;-76
2023/02/04 02:07:05;;;;;;;;;;;;;;;;;;1043039;28;19909;-76
2023/02/04 02:07:36;;;;;;;;;;;;;;;;;;1042884;28;19909;-76
2023/02/04 02:08:06;;;;;;;;;;;;;;;;;;1039418;28;20026;-77
2023/02/04 02:08:37;;;;;;;;;;;;;;;;;;1043047;28;19909;-76
2023/02/04 02:09:08;;;;;;;;;;;;;;;;;;1043283;28;20391;-78
2023/02/04 02:09:39;;;;;;;;;;;;;;;;;;1039123;28;19921;-77
2023/02/04 02:10:10;;;;;;;;;;;;;;;;;;1043201;28;19913;-77
2023/02/04 02:10:41;;;;;;;;;;;;;;;;;;1038705;28;19917;-76
2023/02/04 02:11:12;;;;;;;;;;;;;;;;;;1035118;28;20389;-77
2023/02/04 02:11:43;;;;;;;;;;;;;;;;;;1038873;28;19913;-77
2023/02/04 02:12:14;;;;;;;;;;;;;;;;;;1035109;28;19910;-76
2023/02/04 02:12:45;;;;;;;;;;;;;;;;;;1038806;28;20335;-76
2023/02/04 02:13:15;;;;;;;;;;;;;;;;;;1039132;28;19944;-76
2023/02/04 02:13:46;;;;;;;;;;;;;;;;;;1038887;28;20293;-76
2023/02/04 02:14:17;;;;;;;;;;;;;;;;;;1042974;28;19909;-76
2023/02/04 02:14:48;;;;;;;;;;;;;;;;;;1045630;28;19999;-76
2023/02/04 02:15:19;;;;;;;;;;;;;;;;;;1047390;28;19958;-77
2023/02/04 02:15:50;;;;;;;;;;;;;;;;;;1047490;28;19912;-76
2023/02/04 02:16:21;;;;;;;;;;;;;;;;;;1047605;28;19958;-76
2023/02/04 02:16:52;;;;;;;;;;;;;;;;;;1047449;28;19912;-77
2023/02/04 02:17:22;;;;;;;;;;;;;;;;;;1043058;28;19917;-76
2023/02/04 02:17:53;;;;;;;;;;;;;;;;;;1038903;28;19913;-76
2023/02/04 02:18:24;;;;;;;;;;;;;;;;;;1035111;28;19953;-78
2023/02/04 02:18:56;;;;;;;;;;;;;;;;;;1036581;28;20012;-76
2023/02/04 02:19:27;;;;;;;;;;;;;;;;;;1035507;28;19914;-76
2023/02/04 02:19:58;;;;;;;;;;;;;;;;;;1034756;28;19917;-77
2023/02/04 02:20:29;;;;;;;;;;;;;;;;;;1031386;28;19910;-76
2023/02/04 02:21:00;;;;;;;;;;;;;;;;;;1034757;28;19914;-75
2023/02/04 02:21:31;;;;;;;;;;;;;;;;;;1034820;28;19941;-76
2023/02/04 02:22:02;;;;;;;;;;;;;;;;;;1035238;28;19948;-76
2023/02/04 02:22:33;;;;;;;;;;;;;;;;;;1038850;28;20661;-76
2023/02/04 02:23:04;;;;;;;;;;;;;;;;;;1035366;28;20339;-76
2023/02/04 02:23:35;;;;;;;;;;;;;;;;;;1035327;28;19937;-76
2023/02/04 02:24:06;;;;;;;;;;;;;;;;;;1039028;28;20579;-77
2023/02/04 02:24:36;;;;;;;;;;;;;;;;;;1039401;28;19909;-77
2023/02/04 02:25:07;;;;;;;;;;;;;;;;;;1043583;28;19913;-77
2023/02/04 02:25:38;;;;;;;;;;;;;;;;;;1043055;28;19913;-76
2023/02/04 02:26:09;;;;;;;;;;;;;;;;;;1043017;28;19956;-78
2023/02/04 02:26:40;;;;;;;;;;;;;;;;;;1042989;28;20292;-77
2023/02/04 02:27:11;;;;;;;;;;;;;;;;;;1043214;28;19909;-76
2023/02/04 02:27:42;;;;;;;;;;;;;;;;;;1041103;28;20516;-76
2023/02/04 02:28:12;;;;;;;;;;;;;;;;;;1039010;28;19920;-77
2023/02/04 02:28:43;;;;;;;;;;;;;;;;;;1039069;28;19913;-76
2023/02/04 02:29:14;;;;;;;;;;;;;;;;;;1035183;28;19913;-77
2023/02/04 02:29:45;;;;;;;;;;;;;;;;;;1039078;28;19935;-77
2023/02/04 02:30:16;;;;;;;;;;;;;;;;;;1039019;28;19913;-76
2023/02/04 02:30:48;;;;;;;;;;;;;;;;;;1039024;28;19916;-77
2023/02/04 02:31:19;;;;;;;;;;;;;;;;;;1042649;28;19999;-77
2023/02/04 02:31:50;;;;;;;;;;;;;;;;;;1038954;28;19913;-77
2023/02/04 02:32:20;;;;;;;;;;;;;;;;;;1039057;28;19959;-76
2023/02/04 02:32:51;;;;;;;;;;;;;;;;;;1042830;28;19992;-76
2023/02/04 02:33:24;;;;;;;;;;;;;;;;;;1042918;28;19913;-77
2023/02/04 02:33:55;;;;;;;;;;;;;;;;;;1043001;28;20327;-77
2023/02/04 02:34:25;;;;;;;;;;;;;;;;;;1042950;28;20536;-76
2023/02/04 02:34:56;;;;;;;;;;;;;;;;;;1041538;28;19919;-77
2023/02/04 02:35:27;;;;;;;;;;;;;;;;;;1039063;28;20307;-76
2023/02/04 02:35:58;;;;;;;;;;;;;;;;;;1035206;28;20013;-77
2023/02/04 02:36:29;;;;;;;;;;;;;;;;;;1038882;28;19928;-76
2023/02/04 02:37:00;;;;;;;;;;;;;;;;;;1039104;28;19953;-76
2023/02/04 02:37:31;;;;;;;;;;;;;;;;;;1039038;28;19913;-76
2023/02/04 02:38:02;;;;;;;;;;;;;;;;;;1039200;28;19918;-75
2023/02/04 02:38:33;;;;;;;;;;;;;;;;;;1043083;28;19913;-77
2023/02/04 02:39:04;;;;;;;;;;;;;;;;;;1039435;28;20012;-76
2023/02/04 02:39:34;;;;;;;;;;;;;;;;;;1038855;28;19913;-76
2023/02/04 02:40:05;;;;;;;;;;;;;;;;;;1035136;28;19909;-77
2023/02/04 02:40:36;;;;;;;;;;;;;;;;;;1029214;28;20101;-76
2023/02/04 02:41:09;;;;;;;;;;;;;;;;;;1031436;28;20338;-77
2023/02/04 02:41:40;;;;;;;;;;;;;;;;;;1043093;28;19912;-77
2023/02/04 02:42:10;;;;;;;;;;;;;;;;;;1036182;28;19948;-76
2023/02/04 02:42:41;;;;;;;;;;;;;;;;;;1038500;28;19917;-76
2023/02/04 02:43:12;;;;;;;;;;;;;;;;;;1035593;28;20383;-77
2023/02/04 02:43:43;;;;;;;;;;;;;;;;;;1035252;28;19920;-77
2023/02/04 02:44:14;;;;;;;;;;;;;;;;;;1042443;28;19913;-77
2023/02/04 02:44:45;;;;;;;;;;;;;;;;;;1038896;28;19959;-77
2023/02/04 02:45:16;;;;;;;;;;;;;;;;;;1039082;28;19947;-77
2023/02/04 02:45:47;;;;;;;;;;;;;;;;;;1038829;28;19980;-77
2023/02/04 02:46:17;;;;;;;;;;;;;;;;;;1038937;28;20635;-77
2023/02/04 02:46:48;;;;;;;;;;;;;;;;;;1034765;28;19914;-77
2023/02/04 02:47:19;;;;;;;;;;;;;;;;;;1034890;28;19977;-77
2023/02/04 02:47:50;;;;;;;;;;;;;;;;;;1035117;28;20000;-77
2023/02/04 02:48:21;;;;;;;;;;;;;;;;;;1033037;28;19951;-77
2023/02/04 02:48:52;;;;;;;;;;;;;;;;;;1031006;28;19960;-77
2023/02/04 02:49:23;;;;;;;;;;;;;;;;;;1035083;28;20338;-76
2023/02/04 02:49:54;;;;;;;;;;;;;;;;;;1036226;28;19929;-75
2023/02/04 02:50:24;;;;;;;;;;;;;;;;;;1035032;28;19992;-77
2023/02/04 02:50:55;;;;;;;;;;;;;;;;;;1034998;28;19925;-76
2023/02/04 02:51:26;;;;;;;;;;;;;;;;;;1034937;28;19932;-77
2023/02/04 02:51:57;;;;;;;;;;;;;;;;;;1034917;28;20000;-76
2023/02/04 02:52:28;;;;;;;;;;;;;;;;;;1031036;28;19937;-76
2023/02/04 02:52:59;;;;;;;;;;;;;;;;;;1030938;28;20480;-77
2023/02/04 02:53:30;;;;;;;;;;;;;;;;;;1031107;28;19957;-77
2023/02/04 02:54:01;;;;;;;;;;;;;;;;;;1035211;28;19910;-77
2023/02/04 02:54:32;;;;;;;;;;;;;;;;;;1039235;28;20431;-77
2023/02/04 02:55:03;;;;;;;;;;;;;;;;;;1041742;28;19990;-76
2023/02/04 02:55:34;;;;;;;;;;;;;;;;;;1039204;28;19960;-77
2023/02/04 02:56:05;;;;;;;;;;;;;;;;;;1039459;28;20368;-77
2023/02/04 02:56:36;;;;;;;;;;;;;;;;;;1035286;28;19920;-77
2023/02/04 02:57:07;;;;;;;;;;;;;;;;;;1039089;28;19994;-77
2023/02/04 02:57:38;;;;;;;;;;;;;;;;;;1034800;28;19909;-77
2023/02/04 02:58:08;;;;;;;;;;;;;;;;;;1034954;28;20000;-77
2023/02/04 02:58:39;;;;;;;;;;;;;;;;;;1034797;28;20431;-77
2023/02/04 02:59:10;;;;;;;;;;;;;;;;;;1035350;28;19916;-77
2023/02/04 02:59:41;;;;;;;;;;;;;;;;;;1039299;28;20273;-77
2023/02/04 03:00:12;;;;;;;;;;;;;;;;;;1043582;28;19909;-77
2023/02/04 03:00:43;;;;;;;;;;;;;;;;;;1043243;28;19913;-77
2023/02/04 03:01:14;;;;;;;;;;;;;;;;;;1039159;28;20020;-76
2023/02/04 03:01:45;;;;;;;;;;;;;;;;;;1038947;28;20667;-76
2023/02/04 03:02:16;;;;;;;;;;;;;;;;;;1038835;28;19916;-76
2023/02/04 03:02:47;;;;;;;;;;;;;;;;;;1038876;28;20420;-76
2023/02/04 03:03:17;;;;;;;;;;;;;;;;;;1039105;28;19980;-76
2023/02/04 03:03:48;;;;;;;;;;;;;;;;;;1038666;28;19909;-76
2023/02/04 03:04:22;;;;;;;;;;;;;;;;;;1038908;28;19916;-76
2023/02/04 03:04:53;;;;;;;;;;;;;;;;;;1038932;28;19945;-77
2023/02/04 03:05:24;;;;;;;;;;;;;;;;;;1034962;28;19910;-76
2023/02/04 03:05:54;;;;;;;;;;;;;;;;;;1035428;28;19909;-77
2023/02/04 03:06:25;;;;;;;;;;;;;;;;;;1039012;28;19968;-76
2023/02/04 03:06:56;;;;;;;;;;;;;;;;;;1039133;28;20423;-76
2023/02/04 03:07:27;;;;;;;;;;;;;;;;;;1038928;28;19914;-76
2023/02/04 03:07:58;;;;;;;;;;;;;;;;;;1039005;28;20404;-76
2023/02/04 03:08:29;;;;;;;;;;;;;;;;;;1038931;28;20300;-76
2023/02/04 03:09:00;;;;;;;;;;;;;;;;;;1039506;28;19913;-76
2023/02/04 03:09:30;;;;;;;;;;;;;;;;;;1043325;28;20531;-76
2023/02/04 03:10:01;;;;;;;;;;;;;;;;;;1039084;28;19917;-76
2023/02/04 03:10:32;;;;;;;;;;;;;;;;;;1038740;28;20327;-76
2023/02/04 03:11:03;;;;;;;;;;;;;;;;;;1039178;28;19944;-76
2023/02/04 03:11:34;;;;;;;;;;;;;;;;;;1038902;28;20276;-76
2023/02/04 03:12:05;;;;;;;;;;;;;;;;;;1038723;28;19940;-77
2023/02/04 03:12:36;;;;;;;;;;;;;;;;;;1034879;28;19964;-76
2023/02/04 03:13:07;;;;;;;;;;;;;;;;;;1039217;28;19920;-77
2023/02/04 03:13:37;;;;;;;;;;;;;;;;;;1038768;28;19909;-76
2023/02/04 03:14:08;;;;;;;;;;;;;;;;;;1039212;28;19913;-76
2023/02/04 03:14:39;;;;;;;;;;;;;;;;;;1038927;28;19913;-76
2023/02/04 03:15:10;;;;;;;;;;;;;;;;;;1037451;28;19963;-77
2023/02/04 03:15:41;;;;;;;;;;;;;;;;;;1038707;28;20339;-76
2023/02/04 03:16:12;;;;;;;;;;;;;;;;;;1043534;28;19912;-76
2023/02/04 03:16:43;;;;;;;;;;;;;;;;;;1038750;28;19978;-76
2023/02/04 03:17:14;;;;;;;;;;;;;;;;;;1034808;28;20589;-76
2023/02/04 03:17:45;;;;;;;;;;;;;;;;;;1030746;28;20542;-76
2023/02/04 03:18:16;;;;;;;;;;;;;;;;;;1031121;28;19921;-77
2023/02/04 03:18:46;;;;;;;;;;;;;;;;;;1030721;28;20452;-78
2023/02/04 03:19:17;;;;;;;;;;;;;;;;;;1035317;28;19910;-76
2023/02/04 03:19:48;;;;;;;;;;;;;;;;;;1038909;28;20288;-76
2023/02/04 03:20:19;;;;;;;;;;;;;;;;;;1039376;28;19917;-76
2023/02/04 03:20:50;;;;;;;;;;;;;;;;;;1043306;28;19919;-76
2023/02/04 03:21:21;;;;;;;;;;;;;;;;;;1039192;28;20391;-75
2023/02/04 03:21:52;;;;;;;;;;;;;;;;;;1038756;28;20311;-76
2023/02/04 03:22:22;;;;;;;;;;;;;;;;;;1039085;28;19917;-75
2023/02/04 03:22:53;;;;;;;;;;;;;;;;;;1039007;28;19922;-77
2023/02/04 03:23:26;;;;;;;;;;;;;;;;;;1039035;28;20096;-76
2023/02/04 03:23:56;;;;;;;;;;;;;;;;;;1035078;28;19910;-77
2023/02/04 03:24:27;;;;;;;;;;;;;;;;;;1039072;28;19917;-76
2023/02/04 03:24:58;;;;;;;;;;;;;;;;;;1039077;28;19984;-76
2023/02/04 03:25:29;;;;;;;;;;;;;;;;;;1039083;28;20372;-77
2023/02/04 03:26:00;;;;;;;;;;;;;;;;;;1038847;28;19913;-76
2023/02/04 03:26:31;;;;;;;;;;;;;;;;;;1038874;28;20747;-76
2023/02/04 03:27:02;;;;;;;;;;;;;;;;;;1038781;28;20008;-77
2023/02/04 03:27:33;;;;;;;;;;;;;;;;;;1038900;28;19979;-76
2023/02/04 03:28:04;;;;;;;;;;;;;;;;;;1038989;28;19960;-76
2023/02/04 03:28:35;;;;;;;;;;;;;;;;;;1038643;28;19913;-76
2023/02/04 03:29:05;;;;;;;;;;;;;;;;;;1034889;28;19992;-76
2023/02/04 03:29:37;;;;;;;;;;;;;;;;;;1031084;28;19997;-77
2023/02/04 03:30:07;;;;;;;;;;;;;;;;;;1030815;28;19914;-76
2023/02/04 03:30:38;;;;;;;;;;;;;;;;;;1030989;28;20361;-77
2023/02/04 03:31:09;;;;;;;;;;;;;;;;;;1031959;28;19918;-76